Time;durP1;ratioP1;P1;durP2;ratioP2;P2;SDS_P1;SDS_P2;PMS_P1;PMS_P2;Temp;Humidity;BMP_temperature;BMP_pressure;BME280_temperature;BME280_humidity;BME280_pressure;Samples;Min_cycle;Max_cycle;Signal;HPM_P1;HPM_P2
2022/10/28 16:12:04;;;;;;;12.63;4.72;;;22.50;97.80;;;;;;10409181;27;310616;-77
2022/10/28 16:17:14;;;;;;;8.82;3.55;;;22.30;97.70;;;;;;10387073;28;20049;-77
2022/10/28 16:22:17;;;;;;;8.98;4.30;;;22.20;97.20;;;;;;10433673;28;20057;-78
2022/10/28 16:27:24;;;;;;;10.38;4.32;;;22.10;98.00;;;;;;10418426;28;20045;-77
2022/10/28 16:32:29;;;;;;;8.30;3.90;;;22.00;99.20;;;;;;10450016;28;20118;-78
2022/10/28 16:37:33;;;;;;;9.70;3.58;;;21.80;99.00;;;;;;10444214;28;20144;-77
2022/10/28 16:42:36;;;;;;;11.63;3.60;;;21.60;99.30;;;;;;10443513;28;20210;-76
2022/10/28 16:47:38;;;;;;;12.32;3.20;;;21.60;99.10;;;;;;10458662;28;20451;-78
2022/10/28 16:52:40;;;;;;;11.05;3.60;;;21.50;96.80;;;;;;10481346;28;20053;-78
2022/10/28 16:57:44;;;;;;;10.98;3.80;;;21.30;99.90;;;;;;10473950;28;20065;-79
2022/10/28 17:02:49;;;;;;;9.35;3.53;;;20.90;99.90;;;;;;10442208;28;20076;-79
2022/10/28 17:07:54;;;;;;;13.13;3.80;;;20.70;99.90;;;;;;10464565;28;20091;-80
2022/10/28 17:12:57;;;;;;;11.18;3.78;;;20.60;99.90;;;;;;10436074;28;20631;-80
2022/10/28 17:17:59;;;;;;;14.98;4.70;;;20.60;99.90;;;;;;10457477;28;20677;-79
2022/10/28 17:23:01;;;;;;;8.98;3.65;;;20.60;99.90;;;;;;10413759;28;20140;-79
2022/10/28 17:28:04;;;;;;;11.18;3.92;;;20.50;99.90;;;;;;10413859;28;20080;-79
2022/10/28 17:33:06;;;;;;;20.95;6.22;;;20.30;99.90;;;;;;10439842;28;20072;-79
2022/10/28 17:38:08;;;;;;;18.13;5.60;;;20.20;99.90;;;;;;10432024;28;20077;-78
2022/10/28 17:43:12;;;;;;;12.15;3.00;;;20.10;99.90;;;;;;10434708;28;20049;-79
2022/10/28 17:48:14;;;;;;;37.97;17.75;;;19.90;98.70;;;;;;10433330;28;20184;-79
2022/10/28 17:53:16;;;;;;;41.50;19.90;;;19.90;98.10;;;;;;10440688;28;20087;-78
2022/10/28 17:58:19;;;;;;;16.95;4.68;;;19.90;98.40;;;;;;10446454;28;20079;-78
2022/10/28 18:03:21;;;;;;;12.45;4.55;;;19.90;98.90;;;;;;10433437;28;20049;-79
2022/10/28 18:08:23;;;;;;;14.40;3.20;;;19.50;99.90;;;;;;10435085;28;20064;-78
2022/10/28 18:13:28;;;;;;;12.70;5.00;;;19.40;98.10;;;;;;10438416;28;20132;-77
2022/10/28 18:18:30;;;;;;;12.95;4.25;;;19.40;99.90;;;;;;10416200;28;20084;-75
2022/10/28 18:23:33;;;;;;;11.60;3.70;;;19.40;99.90;;;;;;10409618;28;20124;-76
2022/10/28 18:28:38;;;;;;;21.98;10.50;;;19.40;99.90;;;;;;10438027;28;20482;-76
2022/10/28 18:33:41;;;;;;;11.65;4.35;;;19.30;99.90;;;;;;10418204;28;20502;-77
2022/10/28 18:38:43;;;;;;;12.98;3.75;;;19.40;99.70;;;;;;10423783;28;20107;-76
2022/10/28 18:43:47;;;;;;;19.40;8.55;;;19.40;99.90;;;;;;10410640;28;20156;-78
2022/10/28 18:48:50;;;;;;;12.38;4.95;;;19.40;99.90;;;;;;10444547;28;20085;-77
2022/10/28 18:53:53;;;;;;;12.55;4.30;;;19.30;99.90;;;;;;10421179;28;20073;-77
2022/10/28 18:58:58;;;;;;;13.65;3.65;;;19.10;99.90;;;;;;10443283;28;20057;-76
2022/10/28 19:04:03;;;;;;;12.32;4.25;;;19.10;99.90;;;;;;10452474;28;20056;-76
2022/10/28 19:09:06;;;;;;;10.82;3.88;;;19.10;99.90;;;;;;10411423;28;20141;-76
2022/10/28 19:14:10;;;;;;;19.58;7.68;;;19.20;99.90;;;;;;10411563;28;20148;-75
2022/10/28 19:19:12;;;;;;;15.30;5.72;;;19.20;99.90;;;;;;10443252;28;20474;-76
2022/10/28 19:24:15;;;;;;;17.85;6.47;;;19.20;99.90;;;;;;10407930;28;20107;-77
2022/10/28 19:29:18;;;;;;;13.23;5.35;;;19.20;99.90;;;;;;10423469;28;20518;-77
2022/10/28 19:34:20;;;;;;;15.85;5.47;;;19.10;99.90;;;;;;10409206;28;20053;-76
2022/10/28 19:39:23;;;;;;;12.55;5.07;;;19.10;99.90;;;;;;10446788;28;20076;-76
2022/10/28 19:44:29;;;;;;;21.75;5.07;;;19.10;99.90;;;;;;10447474;28;20076;-77
2022/10/28 19:49:32;;;;;;;16.42;5.40;;;19.00;99.90;;;;;;10434946;28;20052;-79
2022/10/28 19:54:35;;;;;;;11.57;4.03;;;18.80;99.90;;;;;;10416686;28;20049;-78
2022/10/28 19:59:39;;;;;;;11.05;4.28;;;18.60;99.90;;;;;;10422824;28;20049;-79
2022/10/28 20:04:41;;;;;;;17.30;5.68;;;18.60;99.90;;;;;;10407713;28;20042;-75
2022/10/28 20:09:43;;;;;;;17.20;6.18;;;18.70;99.90;;;;;;10437817;28;20081;-76
2022/10/28 20:14:46;;;;;;;15.70;5.25;;;18.70;99.90;;;;;;10437976;28;20042;-76
2022/10/28 20:19:48;;;;;;;13.40;4.32;;;18.70;99.90;;;;;;10421956;28;20045;-75
2022/10/28 20:24:50;;;;;;;14.02;5.22;;;18.50;99.90;;;;;;10424566;28;20137;-74
2022/10/28 20:29:56;;;;;;;13.13;4.25;;;18.30;99.90;;;;;;10450012;28;20080;-74
2022/10/28 20:35:00;;;;;;;14.48;4.85;;;18.10;99.90;;;;;;10438410;28;20498;-76
2022/10/28 20:40:02;;;;;;;16.33;4.53;;;18.20;99.90;;;;;;10419530;28;20418;-76
2022/10/28 20:45:07;;;;;;;11.10;4.30;;;18.20;99.90;;;;;;10414625;28;20095;-76
2022/10/28 20:50:09;;;;;;;12.68;4.18;;;18.10;99.90;;;;;;10428748;28;20622;-76
2022/10/28 20:55:12;;;;;;;17.10;5.95;;;18.00;99.90;;;;;;10448308;28;20076;-75
2022/10/28 21:00:16;;;;;;;14.10;5.13;;;17.90;99.90;;;;;;10454496;28;20053;-75
2022/10/28 21:05:18;;;;;;;20.40;8.07;;;17.80;99.90;;;;;;10450754;28;20107;-76
2022/10/28 21:10:20;;;;;;;14.48;5.32;;;17.60;99.90;;;;;;10424254;28;20088;-75
2022/10/28 21:15:24;;;;;;;15.40;5.15;;;17.40;99.90;;;;;;10424392;28;20049;-76
2022/10/28 21:20:25;;;;;;;14.38;5.20;;;17.30;99.90;;;;;;10427857;28;20077;-77
2022/10/28 21:25:28;;;;;;;14.27;6.55;;;17.30;99.90;;;;;;10427887;28;20072;-77
2022/10/28 21:30:31;;;;;;;18.05;5.80;;;17.20;99.90;;;;;;10455941;28;20089;-76
2022/10/28 21:35:33;;;;;;;12.98;5.80;;;17.10;99.90;;;;;;10434559;28;20045;-76
2022/10/28 21:40:35;;;;;;;13.98;4.78;;;17.10;99.90;;;;;;10453256;28;20080;-75
2022/10/28 21:45:38;;;;;;;13.35;4.78;;;16.90;99.90;;;;;;10438060;28;20088;-75
2022/10/28 21:50:50;;;;;;;13.10;4.63;;;16.90;99.90;;;;;;10437113;28;20132;-77
2022/10/28 21:55:52;;;;;;;12.15;4.43;;;16.80;99.90;;;;;;10453520;28;20056;-76
